createdAt,value
2022-12-03T00:01:20.572Z,99235.75
2022-12-03T00:04:23.624Z,99241.94
2022-12-03T00:07:26.205Z,99233.16
2022-12-03T00:10:29.213Z,99242.84
2022-12-03T00:13:31.724Z,99247.28
2022-12-03T00:16:34.589Z,99245.53
2022-12-03T00:19:37.047Z,99257.00
2022-12-03T00:22:39.883Z,99258.78
2022-12-03T00:25:42.446Z,99262.25
2022-12-03T00:28:46.074Z,99263.19
2022-12-03T00:31:49.133Z,99263.19
2022-12-03T00:34:52.484Z,99264.06
2022-12-03T00:37:56.015Z,99270.19
2022-12-03T00:40:58.953Z,99267.56
2022-12-03T00:44:01.556Z,99266.69
2022-12-03T00:47:04.675Z,99264.91
2022-12-03T00:50:08.364Z,99264.03
2022-12-03T00:53:11.190Z,99273.75
2022-12-03T00:56:13.796Z,99271.97
2022-12-03T00:59:16.697Z,99268.41
2022-12-03T01:02:19.285Z,99271.97
2022-12-03T01:05:22.284Z,99266.63
2022-12-03T01:08:24.788Z,99266.63
2022-12-03T01:11:40.768Z,99256.91
2022-12-03T01:14:44.350Z,99258.66
2022-12-03T01:17:47.199Z,99263.03
2022-12-03T01:20:49.739Z,99265.72
2022-12-03T01:23:52.702Z,99263.03
2022-12-03T01:26:56.579Z,99269.28
2022-12-03T01:29:59.548Z,99264.84
2022-12-03T01:33:02.097Z,99271.94
2022-12-03T01:36:05.105Z,99271.97
2022-12-03T01:39:07.984Z,99267.56
2022-12-03T01:42:25.537Z,99268.41
2022-12-03T01:45:29.463Z,99282.53
2022-12-03T01:48:35.081Z,99264.88
2022-12-03T01:51:37.652Z,99279.03
2022-12-03T01:54:43.209Z,99280.78
2022-12-03T01:57:48.072Z,99283.47
2022-12-03T02:00:51.181Z,99282.59
2022-12-03T02:03:54.091Z,99256.03
2022-12-03T02:06:56.940Z,99280.78
2022-12-03T02:10:02.320Z,99276.34
2022-12-03T02:13:08.127Z,99280.78
2022-12-03T02:16:10.933Z,99278.16
2022-12-03T02:19:27.624Z,99278.16
2022-12-03T02:22:51.908Z,99279.88
2022-12-03T02:25:54.796Z,99286.94
2022-12-03T02:28:58.023Z,99280.78
2022-12-03T02:32:01.027Z,99280.78
2022-12-03T02:35:03.648Z,99278.13
2022-12-03T02:38:15.322Z,99280.78
2022-12-03T02:41:37.544Z,99273.66
2022-12-03T02:44:40.539Z,99276.34
2022-12-03T02:47:45.679Z,99279.00
2022-12-03T02:50:51.039Z,99279.91
2022-12-03T02:53:54.395Z,99274.59
2022-12-03T02:56:57.253Z,99273.75
2022-12-03T02:59:59.992Z,99277.25
2022-12-03T03:03:04.593Z,99279.91
2022-12-03T03:06:08.419Z,99286.09
2022-12-03T03:09:11.357Z,99280.78
2022-12-03T03:12:13.943Z,99274.56
2022-12-03T03:15:16.898Z,99274.59
2022-12-03T03:18:19.614Z,99270.19
2022-12-03T03:21:22.524Z,99268.31
2022-12-03T03:24:25.764Z,99268.38
2022-12-03T03:27:28.952Z,99258.59
2022-12-03T03:30:32.003Z,99271.91
2022-12-03T03:33:35.487Z,99278.94
2022-12-03T03:36:38.113Z,99276.22
2022-12-03T03:39:40.900Z,99274.44
2022-12-03T03:42:43.566Z,99274.47
2022-12-03T03:45:47.011Z,99276.19
2022-12-03T03:48:50.143Z,99274.47
2022-12-03T03:51:53.096Z,99270.91
2022-12-03T03:54:55.834Z,99270.03
2022-12-03T03:57:59.071Z,99267.44
2022-12-03T04:01:02.101Z,99280.66
2022-12-03T04:04:07.061Z,99272.75
2022-12-03T04:07:09.998Z,99270.09
2022-12-03T04:10:32.462Z,99268.34
2022-12-03T04:13:34.954Z,99271.00
2022-12-03T04:16:37.823Z,99270.91
2022-12-03T04:19:40.364Z,99262.97
2022-12-03T04:22:43.319Z,99278.97
2022-12-03T04:26:04.349Z,99279.88
2022-12-03T04:29:07.155Z,99276.28
2022-12-03T04:32:28.039Z,99275.41
2022-12-03T04:35:42.999Z,99281.59
2022-12-03T04:38:45.530Z,99278.13
2022-12-03T04:41:48.316Z,99290.44
2022-12-03T04:44:51.353Z,99292.25
2022-12-03T04:47:54.266Z,99294.97
2022-12-03T04:50:56.752Z,99295.81
2022-12-03T04:53:59.534Z,99288.75
2022-12-03T04:57:02.889Z,99283.44
2022-12-03T05:00:06.458Z,99279.88
2022-12-03T05:03:09.017Z,99283.44
2022-12-03T05:06:11.921Z,99283.34
2022-12-03T05:09:14.698Z,99286.88
2022-12-03T05:12:17.611Z,99286.88
2022-12-03T05:15:20.097Z,99287.75
2022-12-03T05:18:23.063Z,99279.78
2022-12-03T05:21:25.594Z,99270.88
2022-12-03T05:24:28.494Z,99282.47
2022-12-03T05:27:31.191Z,99287.75
2022-12-03T05:30:34.163Z,99288.69
2022-12-03T05:33:40.991Z,99271.84
2022-12-03T05:36:46.970Z,99276.34
2022-12-03T05:39:49.955Z,99284.31
2022-12-03T05:42:57.127Z,99288.72
2022-12-03T05:45:59.909Z,99274.31
2022-12-03T05:49:05.932Z,99289.25
2022-12-03T05:52:08.539Z,99296.22
2022-12-03T05:55:12.003Z,99289.06
2022-12-03T05:58:14.619Z,99298.72
2022-12-03T06:01:17.501Z,99248.13
2022-12-03T06:04:20.589Z,99293.31
2022-12-03T06:07:23.162Z,99287.13
2022-12-03T06:10:26.480Z,99299.44
2022-12-03T06:13:29.039Z,99303.88
2022-12-03T06:16:31.958Z,99311.81
2022-12-03T06:19:34.793Z,99310.94
2022-12-03T06:22:37.577Z,99311.84
2022-12-03T06:25:40.075Z,99323.37
2022-12-03T06:28:47.704Z,99323.31
2022-12-03T06:31:50.279Z,99327.72
2022-12-03T06:34:53.378Z,99326.88
2022-12-03T06:37:56.120Z,99329.56
2022-12-03T06:40:59.005Z,99333.03
2022-12-03T06:44:01.584Z,99321.59
2022-12-03T06:47:04.407Z,99310.13
2022-12-03T06:50:08.174Z,99287.28
2022-12-03T06:53:11.164Z,99303.91
2022-12-03T06:56:13.669Z,99312.56
2022-12-03T06:59:16.451Z,99299.09
2022-12-03T07:02:20.198Z,99319.34
2022-12-03T07:05:22.994Z,99320.13
2022-12-03T07:08:25.669Z,99320.06
2022-12-03T07:11:31.043Z,99326.22
2022-12-03T07:14:33.611Z,99340.31
2022-12-03T07:17:36.402Z,99331.50
2022-12-03T07:20:38.899Z,99326.19
2022-12-03T07:23:41.848Z,99320.91
2022-12-03T07:26:44.377Z,99326.25
2022-12-03T07:29:47.286Z,99329.78
2022-12-03T07:32:50.311Z,99335.09
2022-12-03T07:35:53.059Z,99337.78
2022-12-03T07:38:55.571Z,99323.69
2022-12-03T07:41:58.307Z,99326.31
2022-12-03T07:45:01.418Z,99322.78
2022-12-03T07:48:05.866Z,99326.41
2022-12-03T07:51:11.579Z,99318.62
2022-12-03T07:54:17.659Z,99312.72
2022-12-03T07:57:20.323Z,99325.88
2022-12-03T08:00:23.307Z,99339.03
2022-12-03T08:03:26.125Z,99343.34
2022-12-03T08:06:28.663Z,99342.47
2022-12-03T08:09:31.943Z,99339.75
2022-12-03T08:12:40.401Z,99332.72
2022-12-03T08:15:44.068Z,99338.06
2022-12-03T08:18:47.876Z,99344.28
2022-12-03T08:21:50.645Z,99341.72
2022-12-03T08:24:53.571Z,99319.38
2022-12-03T08:28:20.697Z,99330.75
2022-12-03T08:31:32.429Z,99327.12
2022-12-03T08:34:40.508Z,99329.75
2022-12-03T08:37:42.991Z,99346.56
2022-12-03T08:40:47.214Z,99351.84
2022-12-03T08:43:49.798Z,99351.03
2022-12-03T08:47:12.990Z,99348.41
2022-12-03T08:50:38.706Z,99349.34
2022-12-03T08:53:48.541Z,99345.91
2022-12-03T08:56:51.048Z,99333.62
2022-12-03T08:59:59.157Z,99331.97
2022-12-03T09:03:01.760Z,99333.84
2022-12-03T09:06:05.043Z,99330.37
2022-12-03T09:09:07.560Z,99334.91
2022-12-03T09:12:11.057Z,99334.94
2022-12-03T09:15:13.697Z,99333.16
2022-12-03T09:18:16.543Z,99345.56
2022-12-03T09:21:19.548Z,99351.78
2022-12-03T09:24:22.472Z,99345.59
2022-12-03T09:27:25.024Z,99345.56
2022-12-03T09:30:28.011Z,99334.06
2022-12-03T09:33:32.429Z,99340.25
2022-12-03T09:36:35.323Z,99344.69
2022-12-03T09:39:37.924Z,99339.38
2022-12-03T09:42:41.335Z,99342.91
2022-12-03T09:45:48.083Z,99326.94
2022-12-03T09:48:51.153Z,99324.25
2022-12-03T09:51:58.903Z,99317.13
2022-12-03T09:55:07.850Z,99325.13
2022-12-03T09:58:12.564Z,99319.81
2022-12-03T10:01:16.282Z,99321.59
2022-12-03T10:04:19.928Z,99310.94
2022-12-03T10:07:23.374Z,99308.31
2022-12-03T10:10:26.272Z,99308.31
2022-12-03T10:13:30.421Z,99311.88
2022-12-03T10:16:33.873Z,99306.53
2022-12-03T10:19:37.594Z,99296.78
2022-12-03T10:22:40.601Z,99268.41
2022-12-03T10:25:56.595Z,99306.56
2022-12-03T10:28:59.785Z,99300.31
2022-12-03T10:32:07.593Z,99302.97
2022-12-03T10:35:20.609Z,99280.66
2022-12-03T10:38:23.705Z,99296.50
2022-12-03T10:41:29.253Z,99295.47
2022-12-03T10:44:31.822Z,99286.59
2022-12-03T10:47:35.090Z,99240.38
2022-12-03T10:50:38.442Z,99286.44
2022-12-03T10:53:41.563Z,99268.63
2022-12-03T10:56:44.896Z,99271.34
2022-12-03T10:59:48.013Z,99266.69
2022-12-03T11:02:56.715Z,99264.69
2022-12-03T11:06:06.080Z,99268.06
2022-12-03T11:09:18.403Z,99273.06
2022-12-03T11:12:24.553Z,99272.59
2022-12-03T11:15:42.477Z,99268.59
2022-12-03T11:18:45.775Z,99253.91
2022-12-03T11:22:03.499Z,99254.34
2022-12-03T11:25:24.978Z,99251.50
2022-12-03T11:28:27.661Z,99244.97
2022-12-03T11:31:36.566Z,99255.75
2022-12-03T11:34:40.773Z,99252.22
2022-12-03T11:37:43.580Z,99235.28
2022-12-03T11:41:16.167Z,99239.16
2022-12-03T11:44:30.712Z,99239.53
2022-12-03T11:47:38.668Z,99219.56
2022-12-03T11:50:43.817Z,99215.34
2022-12-03T11:53:46.659Z,99228.78
2022-12-03T11:56:50.203Z,99236.81
2022-12-03T12:00:05.463Z,99226.19
2022-12-03T12:03:22.861Z,99230.66
2022-12-03T12:06:26.084Z,99223.63
2022-12-03T12:09:49.329Z,99218.34
2022-12-03T12:12:55.079Z,99216.63
2022-12-03T12:16:02.549Z,99219.41
2022-12-03T12:19:27.398Z,99216.84
2022-12-03T12:22:31.532Z,99212.50
2022-12-03T12:25:35.405Z,99209.00
2022-12-03T12:28:38.010Z,99201.69
2022-12-03T12:31:41.016Z,99197.91
2022-12-03T12:34:50.912Z,99201.56
2022-12-03T12:38:00.176Z,99193.31
2022-12-03T12:41:07.126Z,99208.72
2022-12-03T12:44:10.656Z,99208.81
2022-12-03T12:47:13.311Z,99209.78
2022-12-03T12:50:18.104Z,99210.06
2022-12-03T12:53:29.668Z,99196.06
2022-12-03T12:56:33.461Z,99190.94
2022-12-03T12:59:36.369Z,99176.06
2022-12-03T13:02:44.479Z,99184.13
2022-12-03T13:05:48.979Z,99182.50
2022-12-03T13:08:52.429Z,99182.56
2022-12-03T13:11:57.681Z,99172.00
2022-12-03T13:15:00.965Z,99173.88
2022-12-03T13:18:24.606Z,99181.00
2022-12-03T13:21:41.542Z,99181.03
2022-12-03T13:24:47.690Z,99194.44
2022-12-03T13:27:50.664Z,99201.56
2022-12-03T13:30:53.248Z,99194.44
2022-12-03T13:33:57.065Z,99189.16
2022-12-03T13:37:04.368Z,99185.63
2022-12-03T13:40:36.184Z,99178.56
2022-12-03T13:43:44.327Z,99176.81
2022-12-03T13:46:47.668Z,99178.59
2022-12-03T13:49:55.372Z,99183.09
2022-12-03T13:53:03.742Z,99193.75
2022-12-03T13:56:18.428Z,99185.81
2022-12-03T13:59:25.954Z,99192.03
2022-12-03T14:02:28.914Z,99184.97
2022-12-03T14:05:31.700Z,99195.59
2022-12-03T14:08:34.231Z,99187.63
2022-12-03T14:11:56.190Z,99199.16
2022-12-03T14:14:58.952Z,99195.63
2022-12-03T14:18:02.449Z,99196.53
2022-12-03T14:21:05.097Z,99147.84
2022-12-03T14:24:08.386Z,99201.84
2022-12-03T14:27:11.162Z,99193.91
2022-12-03T14:30:14.773Z,99184.16
2022-12-03T14:33:17.240Z,99186.84
2022-12-03T14:36:20.013Z,99197.47
2022-12-03T14:39:22.801Z,99201.91
2022-12-03T14:42:25.941Z,99201.94
2022-12-03T14:45:30.060Z,99212.56
2022-12-03T14:48:32.953Z,99207.25
2022-12-03T14:51:35.819Z,99215.22
2022-12-03T14:54:45.094Z,99207.28
2022-12-03T14:57:47.771Z,99200.19
2022-12-03T15:00:50.806Z,99196.62
2022-12-03T15:03:53.645Z,99200.16
2022-12-03T15:06:56.530Z,99208.16
2022-12-03T15:09:59.228Z,99203.72
2022-12-03T15:13:02.407Z,99197.53
2022-12-03T15:16:05.213Z,98987.63
2022-12-03T15:19:08.237Z,99208.16
2022-12-03T15:22:10.778Z,99206.38
2022-12-03T15:25:13.654Z,99205.50
2022-12-03T15:28:16.177Z,99209.94
2022-12-03T15:31:19.266Z,99211.69
2022-12-03T15:34:23.410Z,99224.97
2022-12-03T15:37:28.212Z,99226.75
2022-12-03T15:40:31.512Z,99226.72
2022-12-03T15:43:34.922Z,99225.88
2022-12-03T15:46:37.400Z,99239.16
2022-12-03T15:49:40.473Z,99222.31
2022-12-03T15:52:43.041Z,99229.41
2022-12-03T15:55:46.058Z,99221.41
2022-12-03T15:58:48.755Z,99223.16
2022-12-03T16:01:51.820Z,99224.94
2022-12-03T16:04:54.920Z,99220.50
2022-12-03T16:07:57.567Z,99217.84
2022-12-03T16:11:00.384Z,99209.88
2022-12-03T16:14:03.106Z,99215.16
2022-12-03T16:17:05.886Z,99218.69
2022-12-03T16:20:08.967Z,99213.38
2022-12-03T16:23:11.898Z,99218.69
2022-12-03T16:26:14.415Z,99223.09
2022-12-03T16:29:17.503Z,99209.81
2022-12-03T16:32:20.095Z,99201.84
2022-12-03T16:35:23.283Z,99208.03
2022-12-03T16:38:25.779Z,99209.78
2022-12-03T16:41:28.659Z,99215.09
2022-12-03T16:44:32.979Z,99214.19
2022-12-03T16:47:36.060Z,99192.94
2022-12-03T16:50:38.768Z,99220.41
2022-12-03T16:53:42.105Z,99223.97
2022-12-03T16:56:44.868Z,99221.31
2022-12-03T16:59:47.852Z,99216.87
2022-12-03T17:02:50.521Z,99210.66
2022-12-03T17:05:53.299Z,99210.66
2022-12-03T17:08:56.090Z,99211.56
2022-12-03T17:11:59.040Z,99209.78
2022-12-03T17:15:01.731Z,99215.97
2022-12-03T17:18:05.779Z,99214.22
2022-12-03T17:21:08.393Z,99220.38
2022-12-03T17:24:11.184Z,99217.72
2022-12-03T17:27:15.684Z,99211.53
2022-12-03T17:30:18.766Z,99218.63
2022-12-03T17:33:21.301Z,99217.72
2022-12-03T17:36:24.915Z,99216.84
2022-12-03T17:39:27.573Z,99223.00
2022-12-03T17:42:30.434Z,99220.38
2022-12-03T17:45:32.919Z,99215.91
2022-12-03T17:48:35.861Z,99211.50
2022-12-03T17:51:39.377Z,99207.91
2022-12-03T17:55:09.172Z,99209.69
2022-12-03T17:58:05.197Z,99208.81
2022-12-03T18:01:11.560Z,99215.00
2022-12-03T18:04:14.593Z,99215.87
2022-12-03T18:07:17.144Z,99209.66
2022-12-03T18:10:20.154Z,99218.50
2022-12-03T18:13:22.887Z,99220.28
2022-12-03T18:16:26.001Z,99210.56
2022-12-03T18:19:28.725Z,99222.91
2022-12-03T18:22:31.608Z,99215.81
2022-12-03T18:25:34.115Z,99198.97
2022-12-03T18:28:37.216Z,99222.00
2022-12-03T18:31:39.984Z,99210.50
2022-12-03T18:34:42.974Z,99211.41
2022-12-03T18:37:45.784Z,99213.19
2022-12-03T18:40:50.476Z,99212.28
2022-12-03T18:43:53.174Z,99206.94
2022-12-03T18:46:57.686Z,99210.44
2022-12-03T18:50:00.365Z,99215.78
2022-12-03T18:53:05.183Z,99215.78
2022-12-03T18:56:08.852Z,99219.31
2022-12-03T18:59:12.295Z,99219.28
2022-12-03T19:02:32.462Z,99214.88
2022-12-03T19:05:40.415Z,99226.34
2022-12-03T19:08:43.538Z,99219.28
2022-12-03T19:11:46.871Z,99207.78
2022-12-03T19:14:51.121Z,99204.22
2022-12-03T19:17:54.505Z,99210.41
2022-12-03T19:20:57.824Z,99218.38
2022-12-03T19:24:23.892Z,99219.28
2022-12-03T19:27:24.941Z,99217.47
2022-12-03T19:30:28.277Z,99225.44
2022-12-03T19:33:31.500Z,99219.22
2022-12-03T19:36:34.644Z,99224.53
2022-12-03T19:39:38.550Z,99227.19
2022-12-03T19:42:45.032Z,99223.63
2022-12-03T19:45:47.903Z,99231.59
2022-12-03T19:48:51.154Z,99228.94
2022-12-03T19:51:54.851Z,99229.81
2022-12-03T19:54:58.147Z,99226.25
2022-12-03T19:58:00.890Z,99222.72
2022-12-03T20:01:07.707Z,99222.72
2022-12-03T20:04:11.446Z,99222.72
2022-12-03T20:07:13.974Z,99226.28
2022-12-03T20:10:17.327Z,99230.69
2022-12-03T20:13:20.088Z,99235.12
2022-12-03T20:16:24.365Z,99244.84
2022-12-03T20:19:28.175Z,99236.91
2022-12-03T20:22:31.322Z,99242.25
2022-12-03T20:25:36.680Z,99233.38
2022-12-03T20:28:40.187Z,99236.06
2022-12-03T20:31:43.024Z,99221.00
2022-12-03T20:34:46.175Z,99239.97
2022-12-03T20:37:48.664Z,99228.34
2022-12-03T20:40:51.978Z,99229.16
2022-12-03T20:43:54.864Z,99224.69
2022-12-03T20:46:57.706Z,99233.50
2022-12-03T20:50:01.037Z,99239.66
2022-12-03T20:53:23.722Z,99234.34
2022-12-03T20:56:36.082Z,99238.75
2022-12-03T20:59:39.656Z,99231.66
2022-12-03T21:02:43.006Z,99240.50
2022-12-03T21:05:47.156Z,99244.00
2022-12-03T21:08:52.728Z,99243.12
2022-12-03T21:11:55.566Z,99242.22
2022-12-03T21:14:58.079Z,99237.78
2022-12-03T21:18:02.523Z,99237.75
2022-12-03T21:21:05.642Z,99245.72
2022-12-03T21:24:08.612Z,99239.53
2022-12-03T21:27:11.137Z,99238.63
2022-12-03T21:30:14.281Z,99235.94
2022-12-03T21:33:16.751Z,99232.38
2022-12-03T21:36:19.907Z,99238.56
2022-12-03T21:39:23.040Z,99243.00
2022-12-03T21:42:35.722Z,99231.47
2022-12-03T21:45:40.611Z,99231.47
2022-12-03T21:48:44.815Z,99228.75
2022-12-03T21:51:47.456Z,99231.44
2022-12-03T21:54:52.580Z,99235.88
2022-12-03T21:57:55.027Z,99239.41
2022-12-03T22:00:58.007Z,99230.53
2022-12-03T22:04:01.057Z,99232.31
2022-12-03T22:07:04.430Z,99235.84
2022-12-03T22:10:09.405Z,99221.69
2022-12-03T22:13:11.956Z,99221.69
2022-12-03T22:16:17.973Z,99218.13
2022-12-03T22:19:24.358Z,99219.88
2022-12-03T22:22:27.649Z,99218.97
2022-12-03T22:25:30.610Z,99215.44
2022-12-03T22:28:34.387Z,99225.19
2022-12-03T22:31:37.038Z,99219.00
2022-12-03T22:34:41.630Z,99219.91
2022-12-03T22:37:44.591Z,99212.84
2022-12-03T22:40:47.938Z,99210.22
2022-12-03T22:43:50.417Z,99214.66
2022-12-03T22:46:53.364Z,99213.78
2022-12-03T22:49:58.603Z,99202.31
2022-12-03T22:53:01.740Z,99215.56
2022-12-03T22:56:04.385Z,99211.16
2022-12-03T22:59:07.466Z,99206.72
2022-12-03T23:02:10.306Z,99198.78
2022-12-03T23:05:13.124Z,99201.41
2022-12-03T23:08:18.997Z,99189.84
2022-12-03T23:11:22.773Z,99206.69
2022-12-03T23:14:25.324Z,99205.78
2022-12-03T23:17:28.864Z,99204.03
2022-12-03T23:20:31.648Z,99198.72
2022-12-03T23:23:34.513Z,99196.03
2022-12-03T23:26:38.580Z,99183.59
2022-12-03T23:29:41.490Z,99185.44
2022-12-03T23:32:44.531Z,99193.37
2022-12-03T23:35:47.546Z,99189.88
2022-12-03T23:38:50.411Z,99149.03
2022-12-03T23:41:53.295Z,99186.34
2022-12-03T23:44:55.832Z,99186.34
2022-12-03T23:47:58.659Z,99186.34
2022-12-03T23:51:08.549Z,99176.63
2022-12-03T23:54:12.218Z,99182.78
2022-12-03T23:57:15.984Z,99181.94
